Time;durP1;ratioP1;P1;durP2;ratioP2;P2;SDS_P1;SDS_P2;PMS_P1;PMS_P2;Temp;Humidity;BMP_temperature;BMP_pressure;BME280_temperature;BME280_humidity;BME280_pressure;Samples;Min_cycle;Max_cycle;Signal;HPM_P1;HPM_P2
2023/01/23 00:00:39;;;;;;;2.03;1.02;;;;;;;16.76;59.07;98495.44;2062422;28;20053;-86
2023/01/23 00:01:42;;;;;;;2.42;1.10;;;;;;;16.74;59.12;98495.63;2062937;28;20054;-85
2023/01/23 00:02:43;;;;;;;2.75;0.65;;;;;;;16.74;59.18;98500.16;2063256;28;20049;-84
2023/01/23 00:03:44;;;;;;;;;;;;;;;16.66;59.28;98497.59;2065784;28;20041;-83
2023/01/23 00:04:45;;;;;;;1.17;1.00;;;;;;;16.64;59.30;98497.81;2063589;28;19933;-85
2023/01/23 00:05:55;;;;;;;;;;;;;;;16.57;59.54;98506.81;2063616;28;20581;-87
2023/01/23 00:06:56;;;;;;;1.92;0.63;;;;;;;16.58;59.44;98506.63;2065032;28;19959;-83
2023/01/23 00:07:57;;;;;;;;;;;;;;;16.52;59.51;98507.41;2064893;28;20049;-84
2023/01/23 00:08:58;;;;;;;2.05;0.93;;;;;;;16.55;59.57;98501.66;2064695;28;19995;-83
2023/01/23 00:10:00;;;;;;;;;;;;;;;16.49;59.58;98505.09;2067877;28;20053;-85
2023/01/23 00:11:04;;;;;;;1.20;0.50;;;;;;;16.57;59.64;98506.81;2063518;28;19922;-83
2023/01/23 00:12:06;;;;;;;1.23;0.90;;;;;;;16.61;59.13;98502.75;2064179;28;20066;-83
2023/01/23 00:13:07;;;;;;;0.82;0.82;;;;;;;16.61;59.16;98506.25;2064242;28;20069;-84
2023/01/23 00:14:09;;;;;;;;;;;;;;;16.52;59.39;98497.53;2067059;28;20037;-87
2023/01/23 00:15:11;;;;;;;1.48;0.73;;;;;;;16.53;59.57;98496.50;2065527;28;19925;-83
2023/01/23 00:16:15;;;;;;;0.82;0.80;;;;;;;16.59;59.24;98497.56;2065091;28;20050;-84
2023/01/23 00:17:17;;;;;;;1.40;0.75;;;;;;;16.61;59.16;98489.34;2063195;28;20037;-82
2023/01/23 00:18:19;;;;;;;1.38;0.70;;;;;;;16.58;59.02;98482.53;2064891;28;20050;-85
2023/01/23 00:19:20;;;;;;;1.92;0.47;;;;;;;16.60;59.32;98496.53;2067731;28;20100;-86
2023/01/23 00:20:21;;;;;;;0.75;0.63;;;;;;;16.61;59.14;98495.53;2064127;28;20057;-83
2023/01/23 00:21:23;;;;;;;;;;;;;;;16.47;59.44;98483.88;2064070;28;20046;-86
2023/01/23 00:22:24;;;;;;;1.95;0.80;;;;;;;16.49;59.17;98492.56;2063123;28;20351;-86
2023/01/23 00:23:25;;;;;;;;;;;;;;;16.41;59.62;98486.50;2064903;28;20052;-83
2023/01/23 00:24:26;;;;;;;0.63;0.50;;;;;;;16.42;59.50;98480.94;2062525;28;19928;-85
2023/01/23 00:25:28;;;;;;;;;;;;;;;16.37;59.43;98486.06;2065598;28;20046;-82
2023/01/23 00:26:31;;;;;;;1.40;0.57;;;;;;;16.43;59.37;98484.44;2065257;28;19921;-83
2023/01/23 00:27:33;;;;;;;1.92;0.68;;;;;;;16.44;59.31;98478.09;2066034;28;20081;-82
2023/01/23 00:28:34;;;;;;;1.50;0.88;;;;;;;16.46;59.29;98473.34;2063946;28;20076;-83
2023/01/23 00:29:36;;;;;;;;;;;;;;;16.37;59.47;98482.56;2065343;28;20042;-85
2023/01/23 00:30:36;;;;;;;;;;;;;;;16.30;59.69;98487.84;2064152;28;19976;-85
2023/01/23 00:31:39;;;;;;;1.97;1.07;;;;;;;16.36;59.69;98478.22;2063449;28;19992;-85
2023/01/23 00:32:41;;;;;;;2.40;0.68;;;;;;;16.39;59.56;98480.53;2065157;28;20086;-82
2023/01/23 00:33:44;;;;;;;1.90;0.70;;;;;;;16.43;59.45;98471.06;2064864;28;20065;-83
2023/01/23 00:34:45;;;;;;;3.10;1.10;;;;;;;16.42;59.27;98466.75;2063709;28;20122;-83
2023/01/23 00:35:47;;;;;;;1.73;0.70;;;;;;;16.42;59.15;98472.91;2063080;28;20046;-84
2023/01/23 00:36:47;;;;;;;1.00;0.57;;;;;;;16.42;59.28;98469.44;2063224;28;20104;-83
2023/01/23 00:37:49;;;;;;;;;;;;;;;16.31;59.49;98484.16;2065847;28;20326;-83
2023/01/23 00:38:50;;;;;;;0.80;0.60;;;;;;;16.34;59.60;98488.28;2063370;28;19930;-83
2023/01/23 00:39:51;;;;;;;;;;;;;;;16.25;59.64;98485.75;2065496;28;20062;-81
2023/01/23 00:40:53;;;;;;;1.77;0.73;;;;;;;16.27;59.66;98497.09;2062489;28;19925;-83
2023/01/23 00:41:55;;;;;;;1.30;0.55;;;;;;;16.33;59.36;98497.34;2064513;28;20058;-83
2023/01/23 00:42:55;;;;;;;1.95;0.70;;;;;;;16.32;59.39;98491.16;2064736;28;20060;-84
2023/01/23 00:43:57;;;;;;;;;;;;;;;16.22;59.63;98499.50;2065575;28;20137;-83
2023/01/23 00:44:58;;;;;;;1.67;0.93;;;;;;;16.24;59.57;98497.47;2066269;28;19925;-83
2023/01/23 00:45:59;;;;;;;;;;;;;;;16.18;59.81;98492.88;2062927;28;20101;-83
2023/01/23 00:47:00;;;;;;;1.17;0.85;;;;;;;16.19;59.76;98489.19;2063178;28;19929;-83
2023/01/23 00:48:03;;;;;;;;;;;;;;;16.13;59.84;98503.34;2063890;28;20081;-86
2023/01/23 00:49:04;;;;;;;1.77;0.82;;;;;;;16.16;59.65;98496.75;2065139;28;19971;-83
2023/01/23 00:50:06;;;;;;;0.88;0.88;;;;;;;16.23;59.50;98508.38;2068484;28;20612;-83
2023/01/23 00:51:07;;;;;;;1.63;0.90;;;;;;;16.24;59.46;98510.88;2067461;28;20046;-83
2023/01/23 00:52:08;;;;;;;;;;;;;;;16.14;59.67;98498.81;2067616;28;20043;-83
2023/01/23 00:53:09;;;;;;;2.38;0.75;;;;;;;16.14;59.80;98505.00;2066775;28;20000;-82
2023/01/23 00:54:10;;;;;;;;;;;;;;;16.08;59.81;98503.09;2066109;28;20046;-83
2023/01/23 00:55:11;;;;;;;2.10;0.70;;;;;;;16.12;59.74;98501.66;2066902;28;19925;-84
2023/01/23 00:56:13;;;;;;;;;;;;;;;16.05;59.80;98511.50;2067273;28;20049;-83
2023/01/23 00:57:13;;;;;;;1.75;0.90;;;;;;;16.08;59.73;98501.22;2068745;28;20471;-83
2023/01/23 00:58:15;;;;;;;;;;;;;;;16.01;60.00;98505.66;2068968;28;20049;-83
2023/01/23 00:59:16;;;;;;;1.48;0.63;;;;;;;16.05;59.76;98506.16;2066310;28;19986;-86
2023/01/23 01:00:17;;;;;;;;;;;;;;;16.00;59.92;98503.19;2066696;28;20132;-85
2023/01/23 01:01:18;;;;;;;;;;;;;;;15.92;60.13;98498.78;2065653;28;20013;-83
2023/01/23 01:02:20;;;;;;;0.40;0.40;;;;;;;15.98;60.02;98498.03;2067435;28;19928;-83
2023/01/23 01:03:24;;;;;;;1.88;0.60;;;;;;;16.03;59.75;98492.13;2067767;28;20508;-82
2023/01/23 01:04:25;;;;;;;1.60;1.00;;;;;;;16.07;59.63;98504.09;2065873;28;20058;-83
2023/01/23 01:05:26;;;;;;;0.77;0.50;;;;;;;16.08;59.51;98500.41;2068157;28;20533;-83
2023/01/23 01:06:28;;;;;;;;;;;;;;;15.99;59.81;98499.69;2067516;28;20045;-84
2023/01/23 01:07:29;;;;;;;0.95;0.73;;;;;;;16.02;59.86;98493.16;2067063;28;19937;-83
2023/01/23 01:08:31;;;;;;;;;;;;;;;15.94;59.91;98502.13;2069293;28;20539;-83
2023/01/23 01:09:31;;;;;;;1.23;0.60;;;;;;;15.97;59.88;98495.56;2067727;28;19926;-83
2023/01/23 01:10:33;;;;;;;;;;;;;;;15.92;59.92;98495.28;2066813;28;20051;-82
2023/01/23 01:11:34;;;;;;;0.98;0.68;;;;;;;15.94;59.90;98487.91;2068211;28;19971;-82
2023/01/23 01:12:35;;;;;;;;;;;;;;;15.86;60.10;98497.69;2066319;28;20421;-83
2023/01/23 01:13:36;;;;;;;1.88;0.82;;;;;;;15.91;60.04;98490.94;2062625;28;19925;-82
2023/01/23 01:14:37;;;;;;;;;;;;;;;15.83;60.15;98492.75;2067633;28;20042;-84
2023/01/23 01:15:38;;;;;;;;;;;;;;;15.79;60.29;98490.63;2067369;28;20343;-82
2023/01/23 01:16:44;;;;;;;1.13;0.63;;;;;;;15.81;60.25;98477.91;2067450;28;19992;-85
2023/01/23 01:17:44;;;;;;;1.50;0.70;;;;;;;15.89;60.01;98474.28;2065434;28;20057;-83
2023/01/23 01:18:47;;;;;;;;;;;;;;;15.78;60.29;98475.59;2065147;28;20043;-84
2023/01/23 01:19:48;;;;;;;2.67;0.65;;;;;;;15.84;59.89;98472.16;2060758;28;20602;-86
2023/01/23 01:20:50;;;;;;;;;;;;;;;15.77;60.17;98477.44;2065457;28;20055;-86
2023/01/23 01:21:50;;;;;;;;;;;;;;;15.69;60.36;98469.53;2065290;28;19971;-84
2023/01/23 01:22:52;;;;;;;1.23;0.57;;;;;;;15.76;60.25;98478.44;2065540;28;19972;-84
2023/01/23 01:23:53;;;;;;;0.70;0.70;;;;;;;15.80;60.17;98473.56;2063130;28;20093;-84
2023/01/23 01:24:56;;;;;;;;;;;;;;;15.75;60.27;98473.31;2064158;28;20046;-84
2023/01/23 01:25:58;;;;;;;0.82;0.82;;;;;;;15.81;60.08;98483.25;2062198;28;19965;-83
2023/01/23 01:27:00;;;;;;;1.30;1.02;;;;;;;15.81;60.06;98484.06;2064593;28;20113;-83
2023/01/23 01:28:01;;;;;;;1.05;0.50;;;;;;;15.85;59.88;98490.72;2063612;28;20050;-83
2023/01/23 01:29:02;;;;;;;;;;;;;;;15.75;60.04;98489.34;2063164;28;21094;-82
2023/01/23 01:30:03;;;;;;;;;;;;;;;15.67;60.36;98497.44;2059915;28;19921;-83
2023/01/23 01:31:08;;;;;;;2.60;0.75;;;;;;;15.71;60.21;98496.94;2065823;28;20392;-84
2023/01/23 01:32:09;;;;;;;0.88;0.60;;;;;;;15.75;60.00;98495.53;2063920;28;20038;-82
2023/01/23 01:33:10;;;;;;;;;;;;;;;15.68;60.29;98494.59;2065125;28;20060;-84
2023/01/23 01:34:13;;;;;;;1.83;0.63;;;;;;;15.72;60.05;98487.06;2063843;28;20530;-82
2023/01/23 01:35:15;;;;;;;1.90;0.77;;;;;;;15.76;60.04;98493.66;2064603;28;20137;-83
2023/01/23 01:36:18;;;;;;;1.23;0.68;;;;;;;15.77;59.79;98488.16;2066389;28;20057;-82
2023/01/23 01:37:22;;;;;;;2.30;0.75;;;;;;;15.76;59.88;98489.16;2068457;28;20045;-83
2023/01/23 01:38:23;;;;;;;1.10;0.70;;;;;;;15.74;59.84;98482.31;2064847;28;20046;-83
2023/01/23 01:39:24;;;;;;;;;;;;;;;15.64;60.11;98488.78;2066716;28;20133;-83
2023/01/23 01:40:32;;;;;;;1.25;0.50;;;;;;;15.65;60.07;98490.44;2068074;28;19970;-83
2023/01/23 01:41:34;;;;;;;2.17;0.47;;;;;;;15.67;60.06;98495.59;2069533;28;20046;-84
2023/01/23 01:42:38;;;;;;;0.40;0.32;;;;;;;15.70;59.96;98497.94;2066227;28;20108;-82
2023/01/23 01:43:40;;;;;;;1.15;0.70;;;;;;;15.64;59.77;98487.97;2066295;28;20462;-83
2023/01/23 01:44:53;;;;;;;0.75;0.68;;;;;;;15.65;60.01;98489.59;2065110;28;20049;-83
2023/01/23 01:46:09;;;;;;;0.85;0.43;;;;;;;15.64;60.04;98494.13;2066360;28;20052;-83
2023/01/23 01:47:14;;;;;;;3.45;1.08;;;;;;;15.64;60.04;98487.97;2066645;28;20046;-82
2023/01/23 01:48:17;;;;;;;1.00;0.80;;;;;;;15.66;60.20;98488.59;2064770;28;20046;-83
2023/01/23 01:49:23;;;;;;;3.22;1.13;;;;;;;15.65;59.93;98484.25;2065429;28;20080;-83
2023/01/23 01:50:24;;;;;;;0.68;0.68;;;;;;;15.64;59.91;98482.59;2062539;28;20115;-83
2023/01/23 01:51:28;;;;;;;;;;;;;;;15.50;60.35;98495.00;2065862;28;20119;-83
2023/01/23 01:52:29;;;;;;;1.63;0.93;;;;;;;15.53;60.24;98486.59;2064566;28;19955;-83
2023/01/23 01:53:31;;;;;;;;;;;;;;;15.45;60.52;98477.84;2064078;28;20054;-84
2023/01/23 01:54:38;;;;;;;1.40;0.52;;;;;;;15.49;60.19;98479.13;2066682;28;19933;-84
2023/01/23 01:55:39;;;;;;;1.02;0.70;;;;;;;15.53;60.30;98477.75;2065716;28;20493;-83
2023/01/23 01:56:44;;;;;;;;;;;;;;;15.44;60.50;98470.88;2065735;28;20045;-82
2023/01/23 01:57:47;;;;;;;1.73;1.08;;;;;;;15.42;60.35;98466.50;2065851;28;20316;-82
2023/01/23 01:58:52;;;;;;;1.48;0.70;;;;;;;15.49;60.46;98465.75;2066514;28;20046;-83
2023/01/23 02:00:00;;;;;;;1.33;0.63;;;;;;;15.49;60.37;98460.41;2065279;28;20139;-83
2023/01/23 02:01:00;;;;;;;1.30;0.60;;;;;;;15.50;60.19;98462.91;2064812;28;20111;-85
2023/01/23 02:02:04;;;;;;;;;;;;;;;15.39;60.46;98466.88;2067194;28;20460;-83
2023/01/23 02:03:05;;;;;;;0.93;0.57;;;;;;;15.39;60.47;98458.88;2066262;28;20025;-85
2023/01/23 02:04:09;;;;;;;1.48;0.60;;;;;;;15.45;60.53;98453.81;2066557;28;20042;-83
2023/01/23 02:05:15;;;;;;;1.40;0.70;;;;;;;15.43;60.37;98443.28;2064913;28;20045;-84
2023/01/23 02:06:16;;;;;;;0.88;0.77;;;;;;;15.41;60.27;98450.69;2063411;28;20133;-82
2023/01/23 02:07:22;;;;;;;0.68;0.40;;;;;;;15.43;60.25;98451.31;2064552;28;20100;-85
2023/01/23 02:08:34;;;;;;;0.70;0.70;;;;;;;15.39;60.28;98445.50;2065438;28;20056;-83
2023/01/23 02:09:34;;;;;;;0.82;0.63;;;;;;;15.41;60.38;98446.16;2063228;28;20046;-83
2023/01/23 02:10:37;;;;;;;;;;;;;;;15.32;60.57;98451.78;2067280;28;20050;-83
2023/01/23 02:11:38;;;;;;;0.77;0.50;;;;;;;15.34;60.52;98449.75;2065917;28;19932;-82
2023/01/23 02:12:39;;;;;;;;;;;;;;;15.27;60.69;98454.22;2066264;28;20432;-83
2023/01/23 02:13:41;;;;;;;;;;;;;;;15.19;61.08;98450.63;2064390;28;20012;-86
2023/01/23 02:14:44;;;;;;;1.70;0.65;;;;;;;15.25;60.85;98441.03;2066545;28;19925;-84
2023/01/23 02:15:45;;;;;;;0.68;0.60;;;;;;;15.31;60.50;98442.94;2067548;28;20760;-84
2023/01/23 02:16:49;;;;;;;0.68;0.65;;;;;;;15.36;60.56;98439.72;2065473;28;20073;-83
2023/01/23 02:17:53;;;;;;;2.20;0.65;;;;;;;15.35;60.36;98436.22;2062282;28;20049;-84
2023/01/23 02:18:59;;;;;;;1.25;0.77;;;;;;;15.35;60.25;98435.38;2065330;28;20170;-84
2023/01/23 02:20:12;;;;;;;0.70;0.57;;;;;;;15.33;60.46;98432.09;2066918;28;20216;-83
2023/01/23 02:21:19;;;;;;;1.63;0.65;;;;;;;15.30;60.51;98425.25;2061093;28;20136;-83
2023/01/23 02:22:31;;;;;;;2.42;1.38;;;;;;;15.32;60.42;98431.25;2065325;28;20046;-86
2023/01/23 02:23:42;;;;;;;2.65;0.80;;;;;;;15.28;60.57;98418.44;2065685;28;20509;-86
2023/01/23 02:24:54;;;;;;;0.98;0.50;;;;;;;15.26;60.52;98423.97;2065084;28;20052;-84
2023/01/23 02:25:59;;;;;;;0.65;0.60;;;;;;;15.29;60.32;98420.09;2063513;28;20033;-85
2023/01/23 02:27:02;;;;;;;0.60;0.60;;;;;;;15.27;60.67;98416.81;2067405;28;20038;-83
2023/01/23 02:28:03;;;;;;;1.27;0.70;;;;;;;15.26;60.35;98413.28;2065956;28;20084;-82
2023/01/23 02:29:05;;;;;;;;;;;;;;;15.16;60.82;98418.09;2065187;28;20052;-82
2023/01/23 02:30:07;;;;;;;1.02;0.82;;;;;;;15.19;60.66;98413.22;2064641;28;19968;-84
2023/01/23 02:31:09;;;;;;;0.70;0.52;;;;;;;15.20;60.54;98419.38;2064230;28;21352;-83
2023/01/23 02:32:10;;;;;;;2.42;0.80;;;;;;;15.23;60.65;98410.97;2068060;28;20411;-85
2023/01/23 02:33:32;;;;;;;;;;;;;;;15.12;60.69;98409.63;2065544;28;20104;-83
2023/01/23 02:34:33;;;;;;;0.50;0.43;;;;;;;15.11;60.71;98409.81;2062590;28;20375;-82
2023/01/23 02:35:35;;;;;;;;;;;;;;;15.02;60.94;98403.75;2064068;28;20042;-82
2023/01/23 02:36:36;;;;;;;1.13;0.60;;;;;;;15.08;60.81;98407.53;2064082;28;20012;-85
2023/01/23 02:37:39;;;;;;;;;;;;;;;15.00;61.01;98410.28;2065277;28;20060;-84
2023/01/23 02:38:49;;;;;;;1.25;0.55;;;;;;;15.04;60.84;98403.56;2064962;28;20052;-86
2023/01/23 02:39:51;;;;;;;1.30;0.50;;;;;;;15.09;60.89;98401.16;2066029;28;20038;-83
2023/01/23 02:40:54;;;;;;;1.15;0.60;;;;;;;15.12;60.49;98398.09;2064686;28;20041;-83
2023/01/23 02:41:58;;;;;;;3.15;0.60;;;;;;;15.14;60.69;98396.91;2067989;28;20038;-83
2023/01/23 02:42:59;;;;;;;2.40;0.80;;;;;;;15.15;60.59;98387.03;2065858;28;21175;-83
2023/01/23 02:44:05;;;;;;;0.98;0.63;;;;;;;15.15;60.46;98393.22;2063782;28;20105;-85
2023/01/23 02:45:06;;;;;;;1.58;0.80;;;;;;;15.13;60.59;98381.09;2064230;28;20053;-85
2023/01/23 02:46:11;;;;;;;1.35;0.80;;;;;;;15.15;60.50;98389.72;2066296;28;20058;-83
2023/01/23 02:47:12;;;;;;;1.35;0.85;;;;;;;15.10;60.63;98387.63;2065987;28;20046;-83
2023/01/23 02:48:13;;;;;;;1.17;0.50;;;;;;;15.14;60.53;98390.75;2063646;28;20120;-82
2023/01/23 02:49:15;;;;;;;;;;;;;;;14.99;60.82;98390.78;2063652;28;21018;-83
2023/01/23 02:50:16;;;;;;;;;;;;;;;14.92;61.04;98385.31;2066606;28;19921;-84
2023/01/23 02:51:19;;;;;;;1.10;0.60;;;;;;;14.95;61.06;98386.81;2066879;28;20344;-85
2023/01/23 02:52:22;;;;;;;1.55;0.38;;;;;;;15.00;60.91;98389.75;2067330;28;20050;-82
2023/01/23 02:53:24;;;;;;;1.10;0.70;;;;;;;15.03;60.74;98388.56;2067804;28;20042;-85
2023/01/23 02:54:25;;;;;;;2.75;0.93;;;;;;;15.05;60.76;98398.03;2067081;28;20088;-83
2023/01/23 02:55:28;;;;;;;;;;;;;;;14.93;60.93;98387.00;2067023;28;20096;-82
2023/01/23 02:56:29;;;;;;;0.85;0.80;;;;;;;14.96;60.92;98380.47;2066956;28;20529;-86
2023/01/23 02:57:33;;;;;;;;;;;;;;;14.88;61.10;98386.72;2068659;28;20046;-82
2023/01/23 03:00:16;;;;;;;1.13;0.63;;;;;;;14.91;61.07;98381.00;2051953;28;20408;-84
2023/01/23 03:01:16;;;;;;;0.68;0.38;;;;;;;14.96;60.89;98375.13;2065948;28;20058;-83
2023/01/23 03:02:18;;;;;;;;;;;;;;;14.84;61.18;98388.09;2068959;28;20049;-83
2023/01/23 03:03:19;;;;;;;0.73;0.60;;;;;;;14.87;61.26;98374.38;2067900;28;20569;-82
2023/01/23 03:04:20;;;;;;;;;;;;;;;14.80;61.25;98376.16;2067994;28;20046;-84
2023/01/23 03:05:21;;;;;;;1.42;0.52;;;;;;;14.81;61.31;98374.28;2068841;28;19972;-83
2023/01/23 03:06:23;;;;;;;;;;;;;;;14.76;61.35;98366.84;2068220;28;20417;-83
2023/01/23 03:07:24;;;;;;;0.75;0.50;;;;;;;14.81;61.33;98364.44;2068216;28;19971;-82
2023/01/23 03:08:32;;;;;;;0.90;0.50;;;;;;;14.84;61.20;98372.06;2067103;28;20084;-84
2023/01/23 03:09:34;;;;;;;1.27;0.65;;;;;;;14.87;60.94;98374.38;2068070;28;20431;-82
2023/01/23 03:10:34;;;;;;;1.75;0.55;;;;;;;14.89;60.86;98374.19;2068281;28;20054;-83
2023/01/23 03:11:37;;;;;;;;;;;;;;;14.78;61.23;98391.50;2067437;28;20069;-83
2023/01/23 03:12:42;;;;;;;1.10;0.60;;;;;;;14.80;61.06;98384.16;2068750;28;19922;-83
2023/01/23 03:13:44;;;;;;;2.30;0.80;;;;;;;14.82;61.10;98389.28;2067859;28;20127;-85
2023/01/23 03:14:45;;;;;;;0.90;0.40;;;;;;;14.86;60.82;98394.09;2068288;28;20125;-82
2023/01/23 03:15:51;;;;;;;;;;;;;;;14.75;61.28;98387.38;2067667;28;20053;-83
2023/01/23 03:16:54;;;;;;;0.60;0.60;;;;;;;14.78;61.18;98399.53;2066950;28;20381;-83
2023/01/23 03:17:55;;;;;;;0.85;0.60;;;;;;;14.80;61.11;98400.16;2069759;28;20135;-83
2023/01/23 03:18:57;;;;;;;1.13;0.60;;;;;;;14.82;61.20;98391.97;2069845;28;20053;-82
2023/01/23 03:20:00;;;;;;;1.48;0.73;;;;;;;14.85;60.90;98392.44;2069821;28;20528;-83
2023/01/23 03:21:01;;;;;;;0.85;0.50;;;;;;;14.87;60.71;98397.56;2068401;28;20034;-83
2023/01/23 03:22:03;;;;;;;0.65;0.30;;;;;;;14.83;60.74;98394.47;2065976;28;20049;-82
2023/01/23 03:23:03;;;;;;;1.05;0.30;;;;;;;14.82;60.81;98400.81;2063250;28;20042;-82
2023/01/23 03:24:06;;;;;;;;;;;;;;;14.67;61.02;98395.47;2065702;28;20043;-84
2023/01/23 03:25:07;;;;;;;0.45;0.45;;;;;;;14.73;61.03;98392.06;2065066;28;19960;-85
2023/01/23 03:26:09;;;;;;;0.50;0.50;;;;;;;14.74;60.91;98396.41;2064648;28;20184;-82
2023/01/23 03:27:10;;;;;;;1.33;0.63;;;;;;;14.79;60.88;98393.16;2067410;28;20628;-82
2023/01/23 03:30:47;;;;;;;0.60;0.60;;;;;;;14.69;61.19;98400.63;2064200;28;20039;-83
2023/01/23 03:31:48;;;;;;;2.60;0.77;;;;;;;14.73;61.07;98396.56;2063063;28;20046;-83
2023/01/23 03:32:49;;;;;;;;;;;;;;;14.62;61.36;98397.84;2063872;28;20513;-84
2023/01/23 03:33:52;;;;;;;0.80;0.50;;;;;;;14.63;61.36;98399.53;2065749;28;20442;-82
2023/01/23 03:34:53;;;;;;;0.43;0.43;;;;;;;14.66;61.15;98396.50;2069151;28;20049;-82
2023/01/23 03:35:54;;;;;;;1.85;0.45;;;;;;;14.69;61.17;98398.78;2068104;28;20455;-83
2023/01/23 03:36:56;;;;;;;;;;;;;;;14.59;61.48;98397.41;2068624;28;20049;-85
2023/01/23 03:37:56;;;;;;;1.40;0.68;;;;;;;14.59;61.19;98392.88;2069751;28;19929;-84
2023/01/23 03:41:40;;;;;;;2.45;0.90;;;;;;;14.59;61.39;98392.06;2062865;28;20050;-83
2023/01/23 03:42:41;;;;;;;1.38;0.55;;;;;;;14.62;61.22;98395.19;2064838;28;21920;-86
2023/01/23 03:43:44;;;;;;;;;;;;;;;14.53;61.33;98399.78;2063396;28;20057;-83
2023/01/23 03:44:45;;;;;;;0.60;0.52;;;;;;;14.58;61.43;98395.75;2064714;28;21603;-83
2023/01/23 03:45:46;;;;;;;;;;;;;;;14.52;61.52;98394.66;2063960;28;20038;-83
2023/01/23 03:46:48;;;;;;;1.83;0.80;;;;;;;14.55;61.54;98402.28;2064043;28;19978;-84
2023/01/23 03:47:50;;;;;;;0.73;0.40;;;;;;;14.62;61.37;98397.03;2064013;28;20037;-83
2023/01/23 03:48:51;;;;;;;0.73;0.73;;;;;;;14.63;61.14;98401.38;2062776;28;20064;-83
2023/01/23 03:49:52;;;;;;;;;;;;;;;14.50;61.56;98405.44;2066938;28;20712;-82
2023/01/23 03:50:53;;;;;;;0.73;0.40;;;;;;;14.51;61.50;98406.28;2063013;28;19971;-83
2023/01/23 03:51:55;;;;;;;;;;;;;;;14.47;61.53;98407.66;2063721;28;20081;-85
2023/01/23 03:52:55;;;;;;;0.77;0.40;;;;;;;14.49;61.59;98408.31;2065191;28;19922;-83
2023/01/23 03:53:57;;;;;;;;;;;;;;;14.45;61.75;98412.34;2063091;28;20424;-83
2023/01/23 03:54:57;;;;;;;1.02;0.55;;;;;;;14.48;61.54;98411.97;2063012;28;20016;-82
2023/01/23 03:56:00;;;;;;;;;;;;;;;14.42;61.76;98423.38;2063705;28;20494;-83
2023/01/23 03:57:00;;;;;;;1.55;0.88;;;;;;;14.47;61.32;98410.34;2062846;28;19980;-83
2023/01/23 03:58:02;;;;;;;;;;;;;;;14.41;61.71;98419.91;2064545;28;20046;-83
2023/01/23 03:59:04;;;;;;;0.57;0.40;;;;;;;14.49;61.40;98419.00;2063124;28;20016;-82
2023/01/23 04:00:07;;;;;;;2.92;1.25;;;;;;;14.52;61.33;98395.47;2065853;28;20049;-84
2023/01/23 04:01:08;;;;;;;1.25;0.55;;;;;;;14.53;61.05;98405.13;2064694;28;20083;-87
2023/01/23 04:02:10;;;;;;;;;;;;;;;14.45;61.57;98410.50;2065669;28;20108;-82
2023/01/23 04:03:10;;;;;;;0.85;0.50;;;;;;;14.46;61.47;98392.69;2062749;28;20590;-82
2023/01/23 04:04:12;;;;;;;;;;;;;;;14.37;61.66;98405.25;2066244;28;20108;-83
2023/01/23 04:05:13;;;;;;;1.10;0.75;;;;;;;14.42;61.56;98410.06;2065604;28;19929;-83
2023/01/23 04:06:14;;;;;;;;;;;;;;;14.36;61.71;98405.44;2064049;28;20042;-82
2023/01/23 04:07:15;;;;;;;1.17;0.73;;;;;;;14.41;61.59;98403.88;2062974;28;19959;-82
2023/01/23 04:08:16;;;;;;;;;;;;;;;14.34;61.76;98399.44;2064260;28;20435;-84
2023/01/23 04:09:17;;;;;;;0.73;0.47;;;;;;;14.36;61.67;98406.28;2064858;28;19967;-85
2023/01/23 04:10:19;;;;;;;;;;;;;;;14.31;61.67;98401.47;2063797;28;20054;-83
2023/01/23 04:11:19;;;;;;;0.40;0.38;;;;;;;14.39;61.64;98403.22;2062373;28;19972;-86
2023/01/23 04:12:21;;;;;;;;;;;;;;;14.29;61.85;98419.50;2064274;28;21596;-82
2023/01/23 04:13:21;;;;;;;0.95;0.70;;;;;;;14.34;61.67;98407.47;2064348;28;19955;-82
2023/01/23 04:14:25;;;;;;;;;;;;;;;14.29;61.94;98416.00;2064284;28;20050;-82
2023/01/23 04:15:26;;;;;;;1.10;0.45;;;;;;;14.38;61.77;98416.78;2064557;28;20040;-82
2023/01/23 04:16:28;;;;;;;;;;;;;;;14.28;61.81;98414.34;2063912;28;20109;-82
2023/01/23 04:17:28;;;;;;;;;;;;;;;14.20;62.13;98404.56;2065874;28;21513;-83
2023/01/23 04:18:30;;;;;;;0.93;0.50;;;;;;;14.29;61.85;98419.50;2064011;28;19929;-83
2023/01/23 04:19:31;;;;;;;0.55;0.40;;;;;;;14.36;61.52;98414.28;2062701;28;20069;-84
2023/01/23 04:20:33;;;;;;;1.85;0.40;;;;;;;14.39;61.42;98408.56;2066541;28;20082;-82
2023/01/23 04:21:34;;;;;;;2.22;0.40;;;;;;;14.44;61.45;98403.53;2063212;28;20057;-83
2023/01/23 04:22:35;;;;;;;1.05;0.57;;;;;;;14.43;61.25;98404.53;2063231;28;20050;-84
2023/01/23 04:23:37;;;;;;;;;;;;;;;14.30;61.70;98404.34;2063811;28;20054;-84
2023/01/23 04:24:37;;;;;;;0.50;0.50;;;;;;;14.31;61.71;98396.13;2064240;28;19990;-82
2023/01/23 04:25:39;;;;;;;;;;;;;;;14.28;61.85;98406.34;2063594;28;21585;-82
2023/01/23 04:26:40;;;;;;;0.85;0.38;;;;;;;14.31;61.65;98397.97;2062109;28;19936;-84
2023/01/23 04:27:41;;;;;;;;;;;;;;;14.23;61.90;98392.72;2063433;28;21966;-84
2023/01/23 04:28:42;;;;;;;0.50;0.50;;;;;;;14.24;61.61;98391.72;2060979;28;19936;-84
2023/01/23 04:29:46;;;;;;;;;;;;;;;14.22;61.94;98401.75;2063802;28;21325;-83
2023/01/23 04:30:49;;;;;;;1.00;0.47;;;;;;;14.28;61.62;98395.66;2058875;28;20348;-83
2023/01/23 04:31:50;;;;;;;0.35;0.30;;;;;;;14.33;61.49;98398.63;2064122;28;20060;-83
2023/01/23 04:32:51;;;;;;;0.38;0.30;;;;;;;14.34;61.41;98386.13;2063656;28;20042;-82
2023/01/23 04:33:52;;;;;;;;;;;;;;;14.24;61.69;98391.72;2062460;28;20156;-83
2023/01/23 04:34:53;;;;;;;1.05;0.50;;;;;;;14.28;61.75;98388.50;2062836;28;20234;-85
2023/01/23 04:35:57;;;;;;;;;;;;;;;14.25;61.60;98385.38;2067601;28;20042;-85
2023/01/23 04:36:59;;;;;;;0.90;0.40;;;;;;;14.33;61.41;98387.97;2065292;28;20555;-83
2023/01/23 04:37:59;;;;;;;1.38;0.40;;;;;;;14.40;61.05;98383.56;2061663;28;20448;-83
2023/01/23 04:39:01;;;;;;;;;;;;;;;14.37;61.43;98385.75;2064143;28;20139;-83
2023/01/23 04:40:03;;;;;;;1.23;0.70;;;;;;;14.49;61.14;98378.97;2063935;28;20577;-83
2023/01/23 04:41:05;;;;;;;0.75;0.50;;;;;;;14.60;60.88;98372.34;2062277;28;20037;-82
2023/01/23 04:42:05;;;;;;;0.40;0.40;;;;;;;14.69;60.84;98377.44;2063756;28;20137;-84
2023/01/23 04:43:07;;;;;;;;;;;;;;;14.69;60.75;98373.94;2063502;28;20686;-83
2023/01/23 04:44:20;;;;;;;0.50;0.32;;;;;;;14.72;60.71;98370.91;2063072;28;19925;-83
2023/01/23 04:45:23;;;;;;;0.75;0.43;;;;;;;14.80;60.77;98368.13;2063788;28;20050;-82
2023/01/23 04:46:23;;;;;;;0.70;0.50;;;;;;;14.90;60.65;98374.00;2063240;28;20054;-83
2023/01/23 04:47:25;;;;;;;;;;;;;;;14.89;60.66;98367.00;2062861;28;20049;-82
2023/01/23 04:48:26;;;;;;;1.08;0.50;;;;;;;14.88;60.64;98365.38;2063699;28;19941;-82
2023/01/23 04:49:27;;;;;;;;;;;;;;;14.90;60.95;98376.66;2068244;28;20513;-83
2023/01/23 04:50:28;;;;;;;0.60;0.40;;;;;;;14.96;60.68;98375.94;2067277;28;20354;-83
2023/01/23 04:51:30;;;;;;;;;;;;;;;14.97;60.83;98379.44;2068937;28;20104;-83
2023/01/23 04:52:30;;;;;;;1.15;0.40;;;;;;;15.03;60.63;98377.88;2067308;28;19933;-83
2023/01/23 04:53:32;;;;;;;;;;;;;;;15.03;60.78;98384.03;2067781;28;20488;-82
2023/01/23 04:54:33;;;;;;;0.50;0.50;;;;;;;15.12;60.68;98390.09;2066978;28;19925;-82
2023/01/23 04:55:35;;;;;;;;;;;;;;;15.11;60.82;98385.78;2068673;28;20460;-82
2023/01/23 04:56:35;;;;;;;0.68;0.68;;;;;;;15.19;60.80;98388.34;2067161;28;19956;-83
2023/01/23 04:57:37;;;;;;;;;;;;;;;15.24;60.57;98390.44;2067908;28;20050;-84
2023/01/23 04:58:37;;;;;;;0.35;0.35;;;;;;;15.27;60.61;98380.22;2067417;28;19930;-84
2023/01/23 04:59:39;;;;;;;;;;;;;;;15.28;60.69;98387.22;2069015;28;20054;-82
2023/01/23 05:00:41;;;;;;;0.60;0.60;;;;;;;15.34;60.55;98382.94;2066518;28;20364;-83
2023/01/23 05:01:43;;;;;;;0.50;0.40;;;;;;;15.39;60.37;98367.19;2068604;28;20521;-82
2023/01/23 05:02:45;;;;;;;1.45;0.57;;;;;;;15.42;60.16;98367.63;2065603;28;20042;-82
2023/01/23 05:03:46;;;;;;;1.65;0.47;;;;;;;15.52;60.19;98377.19;2068129;28;20588;-82
2023/01/23 05:04:47;;;;;;;0.47;0.38;;;;;;;15.54;60.04;98375.97;2066684;28;20049;-83
2023/01/23 05:05:52;;;;;;;;;;;;;;;15.52;60.25;98377.19;2067642;28;20049;-83
2023/01/23 05:06:52;;;;;;;0.30;0.20;;;;;;;15.54;60.12;98375.97;2065776;28;19930;-85
2023/01/23 05:07:54;;;;;;;;;;;;;;;15.54;60.23;98380.50;2067356;28;20042;-83
2023/01/23 05:08:55;;;;;;;0.47;0.40;;;;;;;15.56;60.16;98386.47;2067903;28;20304;-84